Sherman, South Dakota
Current Conditions -  °F | °C
As of 3:56 AM on Monday 22 Dec 2014 (Local Time) from KFSD Reporting Station
Light Rain Light Rain  
Wind Chill: 32°   Ceiling: 500
Heat Index: 40°   Visibility: 7mi
Dew Point: 39°   Wind: 14mph
Humidity: 97%   Direction: 160°SSE
Pressure: 29.49"   Gusts: NA
Location:  43.7606°N, 96.5516°W
Report Text: KFSD 220956Z AUTO 16012KT 7SM -RA OVC005 04/04 A2949 RMK AO2 SLP997 P0005 T00440039
Loading
Personal Weather Stations






























Interactive Weather Map New forecast layout! Learn more

10-Day Weather Forecast

Advertisements
Track Severe Weather on mobile